Accueil
METAR-TAF:

METAR-TAF

Aéroports :

Londres-Southend, Angleterre

Aéroport de Londres-Southend

latitude: 51-34N, longitude: 000-42E, altitude: 15 m

Observation

Le bulletin a été fait il y a 1 heure et 7 minutes, à 03:50 UTC
Vent 2 kt de sud/sud-est
Température -1°C
Humidité 93%
Pression 1022 hPa
Visibilité 10 km ou plus
pas de nuages en-dessous de 1500 mètres et pas de cumulonimbus.

METAR: EGMC 180350Z 16002KT CAVOK M01/M02 Q1022

Heure: 04:57 (04:57 UTC)

Prévision

Le bulletin a été fait il y a 2 heures et 52 minutes, à 02:05 UTC
Prévision valable du 18 à 03 UTC au 18 à 12 UTC
Vent 5 kt de sud
Visibilité 10 km ou plus
Quelques nuages à une hauteur de 3000 ft
Probabilité 40%
du 18 à 03 UTC au 18 à 08 UTC
Visibilité: 5000 m
brume

TAF: EGMC 180205Z 1803/1812 19005KT 9999 FEW030 PROB40 1803/1808 5000 BR

Observations et prévisions météorologiques de plus de 4000 aéroports (messages METAR et TAF).

Les stations disponibles sont représentées par des disques jaunes et rouges sur la carte.

Passer la souris dessus pour voir le nom de la station.

Cliquer dessus pour voir les observations et prévisions météorologiques.

Pour changer de carte: cliquez sur les boutons verts avec une croix noire pour zoomer, sur le bouton vert avec un tiret pour effectuer un zoom arrière, ou sur les flèches vertes pour les cartes adjacentes.


METAR-TAF: